sensor_id;sensor_type;location;lat;lon;timestamp;temperature;humidity
22895;DHT22;11614;52.494;6.976;2022-11-20T00:01:10;-4.30;99.90
22895;DHT22;11614;52.494;6.976;2022-11-20T00:06:07;-4.30;99.90
22895;DHT22;11614;52.494;6.976;2022-11-20T00:08:33;-4.20;99.90
22895;DHT22;11614;52.494;6.976;2022-11-20T00:11:13;-4.20;99.90
22895;DHT22;11614;52.494;6.976;2022-11-20T00:16:07;-4.10;99.90
22895;DHT22;11614;52.494;6.976;2022-11-20T00:18:35;-4.30;99.90
22895;DHT22;11614;52.494;6.976;2022-11-20T00:21:05;-4.00;99.90
22895;DHT22;11614;52.494;6.976;2022-11-20T00:23:31;-4.30;99.90
22895;DHT22;11614;52.494;6.976;2022-11-20T00:26:04;-4.30;99.90
22895;DHT22;11614;52.494;6.976;2022-11-20T00:28:30;-4.30;99.90
22895;DHT22;11614;52.494;6.976;2022-11-20T00:33:31;-4.30;99.90
22895;DHT22;11614;52.494;6.976;2022-11-20T00:36:04;-4.30;99.90
22895;DHT22;11614;52.494;6.976;2022-11-20T00:38:30;-4.40;99.90
22895;DHT22;11614;52.494;6.976;2022-11-20T00:41:01;-4.40;99.90
22895;DHT22;11614;52.494;6.976;2022-11-20T00:43:27;-4.40;99.90
22895;DHT22;11614;52.494;6.976;2022-11-20T00:46:00;-4.30;99.90
22895;DHT22;11614;52.494;6.976;2022-11-20T00:48:26;-4.10;99.90
22895;DHT22;11614;52.494;6.976;2022-11-20T00:53:18;-4.40;99.90
22895;DHT22;11614;52.494;6.976;2022-11-20T00:55:53;-4.50;99.90
22895;DHT22;11614;52.494;6.976;2022-11-20T01:00:45;-4.40;99.90
22895;DHT22;11614;52.494;6.976;2022-11-20T01:03:10;-4.50;99.90
22895;DHT22;11614;52.494;6.976;2022-11-20T01:10:28;-4.50;99.90
22895;DHT22;11614;52.494;6.976;2022-11-20T01:12:54;-4.40;99.90
22895;DHT22;11614;52.494;6.976;2022-11-20T01:15:38;-4.60;99.90
22895;DHT22;11614;52.494;6.976;2022-11-20T01:20:34;-4.50;99.90
22895;DHT22;11614;52.494;6.976;2022-11-20T01:23:01;-4.50;99.90
22895;DHT22;11614;52.494;6.976;2022-11-20T01:30:18;-4.70;99.90
22895;DHT22;11614;52.494;6.976;2022-11-20T01:32:44;-4.60;99.90
22895;DHT22;11614;52.494;6.976;2022-11-20T01:40:02;-3.80;99.90
22895;DHT22;11614;52.494;6.976;2022-11-20T01:48:15;-4.60;99.90
22895;DHT22;11614;52.494;6.976;2022-11-20T01:53:11;-4.50;99.90
22895;DHT22;11614;52.494;6.976;2022-11-20T01:55:44;-4.50;99.90
22895;DHT22;11614;52.494;6.976;2022-11-20T01:58:12;-4.80;99.90
22895;DHT22;11614;52.494;6.976;2022-11-20T02:00:39;-4.60;99.90
22895;DHT22;11614;52.494;6.976;2022-11-20T02:03:14;-4.50;99.90
22895;DHT22;11614;52.494;6.976;2022-11-20T02:08:29;-4.70;99.90
22895;DHT22;11614;52.494;6.976;2022-11-20T02:13:21;-4.70;99.90
22895;DHT22;11614;52.494;6.976;2022-11-20T02:16:30;-4.50;99.90
22895;DHT22;11614;52.494;6.976;2022-11-20T02:18:55;-4.80;99.90
22895;DHT22;11614;52.494;6.976;2022-11-20T02:21:43;-4.60;99.90
22895;DHT22;11614;52.494;6.976;2022-11-20T02:24:15;-4.60;99.90
22895;DHT22;11614;52.494;6.976;2022-11-20T02:26:54;-4.60;99.90
22895;DHT22;11614;52.494;6.976;2022-11-20T02:29:42;-4.80;99.90
22895;DHT22;11614;52.494;6.976;2022-11-20T02:32:36;-4.70;99.90
22895;DHT22;11614;52.494;6.976;2022-11-20T02:35:55;-4.60;99.90
22895;DHT22;11614;52.494;6.976;2022-11-20T02:37:59;-4.60;99.90
22895;DHT22;11614;52.494;6.976;2022-11-20T02:42:52;-4.80;99.90
22895;DHT22;11614;52.494;6.976;2022-11-20T02:45:18;-4.70;99.90
22895;DHT22;11614;52.494;6.976;2022-11-20T02:47:44;-4.70;99.90
22895;DHT22;11614;52.494;6.976;2022-11-20T02:55:02;-4.70;99.90
22895;DHT22;11614;52.494;6.976;2022-11-20T03:02:19;-4.70;99.90
22895;DHT22;11614;52.494;6.976;2022-11-20T03:04:45;-4.80;99.90
22895;DHT22;11614;52.494;6.976;2022-11-20T03:07:11;-4.70;99.90
22895;DHT22;11614;52.494;6.976;2022-11-20T03:12:03;-4.70;99.90
22895;DHT22;11614;52.494;6.976;2022-11-20T03:19:21;-4.90;99.90
22895;DHT22;11614;52.494;6.976;2022-11-20T03:24:13;-4.90;99.90
22895;DHT22;11614;52.494;6.976;2022-11-20T03:26:39;-5.00;99.90
22895;DHT22;11614;52.494;6.976;2022-11-20T03:29:05;-4.90;99.90
22895;DHT22;11614;52.494;6.976;2022-11-20T03:31:36;-4.90;99.90
22895;DHT22;11614;52.494;6.976;2022-11-20T03:34:03;-5.00;99.90
22895;DHT22;11614;52.494;6.976;2022-11-20T03:36:29;-4.90;99.90
22895;DHT22;11614;52.494;6.976;2022-11-20T03:38:56;-4.90;99.90
22895;DHT22;11614;52.494;6.976;2022-11-20T03:41:30;-5.00;99.90
22895;DHT22;11614;52.494;6.976;2022-11-20T03:43:58;-5.00;99.90
22895;DHT22;11614;52.494;6.976;2022-11-20T03:51:36;-5.10;99.90
22895;DHT22;11614;52.494;6.976;2022-11-20T03:54:04;-5.30;99.90
22895;DHT22;11614;52.494;6.976;2022-11-20T03:56:33;-5.20;99.90
22895;DHT22;11614;52.494;6.976;2022-11-20T03:58:59;-5.20;99.90
22895;DHT22;11614;52.494;6.976;2022-11-20T04:01:28;-5.20;99.90
22895;DHT22;11614;52.494;6.976;2022-11-20T04:03:55;-5.10;99.90
22895;DHT22;11614;52.494;6.976;2022-11-20T04:06:23;-5.20;99.90
22895;DHT22;11614;52.494;6.976;2022-11-20T04:08:49;-5.10;99.90
22895;DHT22;11614;52.494;6.976;2022-11-20T04:11:23;-4.90;99.90
22895;DHT22;11614;52.494;6.976;2022-11-20T04:13:54;-5.00;99.90
22895;DHT22;11614;52.494;6.976;2022-11-20T04:16:21;-5.10;99.90
22895;DHT22;11614;52.494;6.976;2022-11-20T04:18:55;-5.00;99.90
22895;DHT22;11614;52.494;6.976;2022-11-20T04:31:16;-5.20;99.90
22895;DHT22;11614;52.494;6.976;2022-11-20T04:33:42;-5.10;99.90
22895;DHT22;11614;52.494;6.976;2022-11-20T04:36:19;-5.10;99.90
22895;DHT22;11614;52.494;6.976;2022-11-20T04:38:45;-5.00;99.90
22895;DHT22;11614;52.494;6.976;2022-11-20T04:41:19;-5.20;99.90
22895;DHT22;11614;52.494;6.976;2022-11-20T04:43:49;-5.10;99.90
22895;DHT22;11614;52.494;6.976;2022-11-20T04:46:16;-5.00;99.90
22895;DHT22;11614;52.494;6.976;2022-11-20T04:48:42;-5.10;99.90
22895;DHT22;11614;52.494;6.976;2022-11-20T04:53:33;-5.00;99.90
22895;DHT22;11614;52.494;6.976;2022-11-20T04:56:00;-4.80;99.90
22895;DHT22;11614;52.494;6.976;2022-11-20T05:10:36;-4.80;99.90
22895;DHT22;11614;52.494;6.976;2022-11-20T05:13:02;-4.80;99.90
22895;DHT22;11614;52.494;6.976;2022-11-20T05:20:20;-4.80;99.90
22895;DHT22;11614;52.494;6.976;2022-11-20T05:22:46;-4.90;99.90
22895;DHT22;11614;52.494;6.976;2022-11-20T05:25:12;-4.80;99.90
22895;DHT22;11614;52.494;6.976;2022-11-20T05:27:38;-4.80;99.90
22895;DHT22;11614;52.494;6.976;2022-11-20T05:30:04;-4.80;99.90
22895;DHT22;11614;52.494;6.976;2022-11-20T05:34:56;-4.80;99.90
22895;DHT22;11614;52.494;6.976;2022-11-20T05:37:22;-4.80;99.90
22895;DHT22;11614;52.494;6.976;2022-11-20T05:42:13;-4.50;99.90
22895;DHT22;11614;52.494;6.976;2022-11-20T05:45:01;-4.50;99.90
22895;DHT22;11614;52.494;6.976;2022-11-20T05:47:28;-4.50;99.90
22895;DHT22;11614;52.494;6.976;2022-11-20T05:59:38;-3.90;99.90
22895;DHT22;11614;52.494;6.976;2022-11-20T06:06:55;-3.60;99.90
22895;DHT22;11614;52.494;6.976;2022-11-20T06:09:21;-3.60;99.90
22895;DHT22;11614;52.494;6.976;2022-11-20T06:16:38;-3.10;99.90
22895;DHT22;11614;52.494;6.976;2022-11-20T06:23:56;-2.90;99.90
22895;DHT22;11614;52.494;6.976;2022-11-20T06:26:23;-2.90;99.90
22895;DHT22;11614;52.494;6.976;2022-11-20T06:28:50;-2.90;99.90
22895;DHT22;11614;52.494;6.976;2022-11-20T06:31:18;-2.70;99.90
22895;DHT22;11614;52.494;6.976;2022-11-20T06:33:44;-2.90;99.90
22895;DHT22;11614;52.494;6.976;2022-11-20T06:36:12;-1.00;99.90
22895;DHT22;11614;52.494;6.976;2022-11-20T06:38:39;-2.90;99.90
22895;DHT22;11614;52.494;6.976;2022-11-20T06:41:06;-2.50;99.90
22895;DHT22;11614;52.494;6.976;2022-11-20T06:43:32;-2.60;99.90
22895;DHT22;11614;52.494;6.976;2022-11-20T06:45:58;-2.70;99.90
22895;DHT22;11614;52.494;6.976;2022-11-20T06:48:26;-2.60;99.90
22895;DHT22;11614;52.494;6.976;2022-11-20T06:50:52;-2.50;99.90
22895;DHT22;11614;52.494;6.976;2022-11-20T06:55:45;-2.60;99.90
22895;DHT22;11614;52.494;6.976;2022-11-20T06:58:12;-2.40;99.90
22895;DHT22;11614;52.494;6.976;2022-11-20T07:00:38;-2.50;99.90
22895;DHT22;11614;52.494;6.976;2022-11-20T07:03:04;-2.60;99.90
22895;DHT22;11614;52.494;6.976;2022-11-20T07:07:59;-2.40;99.90
22895;DHT22;11614;52.494;6.976;2022-11-20T07:10:25;-2.30;99.90
22895;DHT22;11614;52.494;6.976;2022-11-20T07:12:52;-2.30;99.90
22895;DHT22;11614;52.494;6.976;2022-11-20T07:15:18;-2.20;99.90
22895;DHT22;11614;52.494;6.976;2022-11-20T07:17:44;-2.10;99.90
22895;DHT22;11614;52.494;6.976;2022-11-20T07:20:10;-2.00;99.90
22895;DHT22;11614;52.494;6.976;2022-11-20T07:22:36;-2.00;99.90
22895;DHT22;11614;52.494;6.976;2022-11-20T07:25:01;-2.10;99.90
22895;DHT22;11614;52.494;6.976;2022-11-20T07:44:29;-1.60;99.90
22895;DHT22;11614;52.494;6.976;2022-11-20T07:46:55;-1.50;99.90
22895;DHT22;11614;52.494;6.976;2022-11-20T07:49:20;-1.50;99.90
22895;DHT22;11614;52.494;6.976;2022-11-20T07:54:12;-1.30;99.90
22895;DHT22;11614;52.494;6.976;2022-11-20T08:06:22;-1.00;99.90
22895;DHT22;11614;52.494;6.976;2022-11-20T08:08:47;-1.00;99.90
22895;DHT22;11614;52.494;6.976;2022-11-20T08:11:13;-0.90;99.90
22895;DHT22;11614;52.494;6.976;2022-11-20T08:13:57;-0.60;99.90
22895;DHT22;11614;52.494;6.976;2022-11-20T09:22:54;6.40;99.90
22895;DHT22;11614;52.494;6.976;2022-11-20T09:25:20;6.80;99.90
22895;DHT22;11614;52.494;6.976;2022-11-20T09:27:46;7.30;99.90
22895;DHT22;11614;52.494;6.976;2022-11-20T09:30:13;7.90;99.90
22895;DHT22;11614;52.494;6.976;2022-11-20T09:32:39;8.60;99.90
22895;DHT22;11614;52.494;6.976;2022-11-20T13:35:33;6.60;71.20
22895;DHT22;11614;52.494;6.976;2022-11-20T13:38:11;6.30;71.10
22895;DHT22;11614;52.494;6.976;2022-11-20T13:40:49;6.50;84.30
22895;DHT22;11614;52.494;6.976;2022-11-20T13:45:56;6.00;74.00
22895;DHT22;11614;52.494;6.976;2022-11-20T13:48:24;5.90;74.00
22895;DHT22;11614;52.494;6.976;2022-11-20T13:51:20;5.80;88.80
22895;DHT22;11614;52.494;6.976;2022-11-20T13:59:56;5.40;89.20
22895;DHT22;11614;52.494;6.976;2022-11-20T14:04:36;4.90;79.50
22895;DHT22;11614;52.494;6.976;2022-11-20T14:07:05;4.90;80.40
22895;DHT22;11614;52.494;6.976;2022-11-20T14:09:33;5.00;81.70
22895;DHT22;11614;52.494;6.976;2022-11-20T14:14:27;4.80;83.40
22895;DHT22;11614;52.494;6.976;2022-11-20T14:17:24;4.80;83.80
22895;DHT22;11614;52.494;6.976;2022-11-20T14:19:55;4.80;93.80
22895;DHT22;11614;52.494;6.976;2022-11-20T14:22:25;4.80;87.90
22895;DHT22;11614;52.494;6.976;2022-11-20T14:32:23;4.60;90.60
22895;DHT22;11614;52.494;6.976;2022-11-20T14:37:23;4.40;93.40
22895;DHT22;11614;52.494;6.976;2022-11-20T14:39:52;4.50;92.20
22895;DHT22;11614;52.494;6.976;2022-11-20T14:42:24;4.40;92.50
22895;DHT22;11614;52.494;6.976;2022-11-20T14:44:51;4.40;92.70
22895;DHT22;11614;52.494;6.976;2022-11-20T14:47:22;4.40;94.80
22895;DHT22;11614;52.494;6.976;2022-11-20T14:49:50;4.30;93.90
22895;DHT22;11614;52.494;6.976;2022-11-20T14:54:47;4.20;94.90
